Time;durP1;ratioP1;P1;durP2;ratioP2;P2;SDS_P1;SDS_P2;PMS_P1;PMS_P2;Temp;Humidity;BMP_temperature;BMP_pressure;BME280_temperature;BME280_humidity;BME280_pressure;Samples;Min_cycle;Max_cycle;Signal;HPM_P1;HPM_P2
2022/03/17 00:01:32;;;;;;;13.65;6.70;;;;;;;4.09;100.00;102889.59;4773407;30;20072;-75
2022/03/17 00:03:58;;;;;;;10.77;6.30;;;;;;;4.04;100.00;102894.41;4788527;30;20104;-75
2022/03/17 00:06:24;;;;;;;9.88;6.03;;;;;;;4.01;100.00;102894.63;4798704;29;20084;-75
2022/03/17 00:08:49;;;;;;;11.00;6.70;;;;;;;3.99;100.00;102894.72;4806763;29;20429;-74
2022/03/17 00:11:15;;;;;;;12.43;6.20;;;;;;;3.99;100.00;102888.53;4790808;29;20046;-74
2022/03/17 00:13:41;;;;;;;9.90;6.15;;;;;;;3.83;100.00;102894.03;4804566;29;20114;-75
2022/03/17 00:16:09;;;;;;;11.95;6.07;;;;;;;3.78;100.00;102861.56;4791809;29;20112;-75
2022/03/17 00:18:35;;;;;;;10.73;5.75;;;;;;;3.78;100.00;102858.91;4791219;29;20399;-74
2022/03/17 00:21:00;;;;;;;9.57;5.68;;;;;;;3.88;100.00;102885.75;4791543;29;20458;-75
2022/03/17 00:23:26;;;;;;;7.53;5.53;;;;;;;3.84;100.00;102885.13;4789638;29;20034;-75
2022/03/17 00:25:51;;;;;;;11.10;5.97;;;;;;;3.90;100.00;102887.34;4807898;29;20442;-74
2022/03/17 00:28:16;;;;;;;10.55;6.25;;;;;;;3.92;100.00;102888.09;4808835;29;20027;-75
2022/03/17 00:30:42;;;;;;;14.25;5.65;;;;;;;3.88;100.00;102881.28;4810200;29;20528;-74
2022/03/17 00:33:07;;;;;;;10.13;6.10;;;;;;;3.88;100.00;102888.44;4758205;30;20035;-75
2022/03/17 00:35:35;;;;;;;9.02;6.40;;;;;;;3.78;100.00;102884.69;4744125;30;20051;-74
2022/03/17 00:38:07;;;;;;;11.65;6.53;;;;;;;3.68;100.00;102889.78;4758247;29;20054;-75
2022/03/17 00:40:37;;;;;;;9.88;6.10;;;;;;;3.62;100.00;102891.03;4789510;30;20043;-74
2022/03/17 00:43:04;;;;;;;11.20;6.68;;;;;;;3.46;100.00;102871.72;4775536;30;20035;-75
2022/03/17 00:45:29;;;;;;;13.52;7.22;;;;;;;3.51;100.00;102890.91;4788830;30;20039;-75
2022/03/17 00:47:55;;;;;;;10.07;6.18;;;;;;;3.36;100.00;102875.94;4788550;30;20038;-74
2022/03/17 00:50:20;;;;;;;10.60;6.20;;;;;;;3.39;100.00;102883.72;4758692;30;20067;-75
2022/03/17 00:52:46;;;;;;;10.02;6.43;;;;;;;3.29;100.00;102875.47;4783106;29;20125;-74
2022/03/17 00:55:14;;;;;;;10.18;6.25;;;;;;;3.23;100.00;102865.25;4772780;29;20339;-74
2022/03/17 00:57:40;;;;;;;10.50;7.05;;;;;;;2.80;100.00;102815.69;4781064;29;20031;-75
2022/03/17 01:00:07;;;;;;;13.55;6.55;;;;;;;3.16;100.00;102879.91;4794233;29;20023;-75
2022/03/17 01:02:33;;;;;;;10.13;6.35;;;;;;;3.09;100.00;102882.09;4783627;30;20441;-74
2022/03/17 01:04:59;;;;;;;12.25;7.03;;;;;;;2.98;100.00;102871.28;4779551;29;20062;-75
2022/03/17 01:07:24;;;;;;;11.43;6.68;;;;;;;2.99;100.00;102875.66;4797338;29;20077;-74
2022/03/17 01:09:50;;;;;;;11.18;6.50;;;;;;;2.98;100.00;102874.81;4785640;29;20055;-74
2022/03/17 01:12:15;;;;;;;12.77;6.88;;;;;;;2.98;100.00;102881.91;4783737;29;20050;-74
2022/03/17 01:14:41;;;;;;;13.55;6.78;;;;;;;2.98;100.00;102881.91;4789152;29;20038;-75
2022/03/17 01:17:07;;;;;;;10.88;6.18;;;;;;;2.93;100.00;102876.06;4795327;29;20039;-74
2022/03/17 01:19:33;;;;;;;14.05;7.40;;;;;;;2.73;100.00;102853.41;4780511;29;20043;-74
2022/03/17 01:21:59;;;;;;;11.20;6.93;;;;;;;2.86;100.00;102870.28;4795590;29;20083;-75
2022/03/17 01:24:25;;;;;;;9.57;6.55;;;;;;;2.59;100.00;102831.22;4792544;29;20534;-74
2022/03/17 01:26:51;;;;;;;11.20;6.85;;;;;;;2.70;100.00;102858.91;4809113;29;20039;-74
2022/03/17 01:29:16;;;;;;;12.25;6.88;;;;;;;2.47;100.00;102818.69;4791264;29;20367;-75
2022/03/17 01:31:43;;;;;;;12.55;6.85;;;;;;;2.59;100.00;102849.81;4810912;29;20121;-75
2022/03/17 01:34:08;;;;;;;9.35;6.88;;;;;;;2.54;100.00;102851.06;4791333;29;20417;-75
2022/03/17 01:36:34;;;;;;;10.75;6.95;;;;;;;2.44;100.00;102845.44;4776831;29;20043;-75
2022/03/17 01:38:59;;;;;;;12.43;7.03;;;;;;;2.25;100.00;102823.63;4774470;30;20039;-74
2022/03/17 01:41:25;;;;;;;10.18;7.30;;;;;;;2.35;100.00;102835.41;4776920;30;20636;-74
2022/03/17 01:43:50;;;;;;;12.38;7.85;;;;;;;2.09;100.00;102802.50;4801625;29;20035;-75
2022/03/17 01:46:16;;;;;;;12.88;7.80;;;;;;;2.29;100.00;102839.31;4794138;29;20023;-75
2022/03/17 01:48:44;;;;;;;12.07;8.05;;;;;;;2.19;100.00;102826.69;4777931;29;20437;-74
2022/03/17 01:51:10;;;;;;;14.10;9.57;;;;;;;2.21;100.00;102838.91;4775969;30;20127;-74
2022/03/17 01:53:37;;;;;;;19.63;9.43;;;;;;;2.23;100.00;102844.16;4789947;29;20478;-74
2022/03/17 01:56:04;;;;;;;16.45;9.55;;;;;;;2.25;100.00;102835.13;4803389;29;20547;-74
2022/03/17 01:58:30;;;;;;;16.27;10.23;;;;;;;2.33;100.00;102830.19;4789838;29;20042;-74
2022/03/17 02:00:56;;;;;;;15.73;10.93;;;;;;;2.17;100.00;102800.22;4803802;29;20461;-74
2022/03/17 02:03:21;;;;;;;18.20;11.20;;;;;;;2.38;100.00;102818.41;4790361;29;20031;-74
2022/03/17 02:05:47;;;;;;;18.02;11.77;;;;;;;2.43;100.00;102806.56;4788336;29;20440;-74
2022/03/17 02:08:14;;;;;;;19.00;11.52;;;;;;;2.34;100.00;102784.06;4791357;29;20039;-74
2022/03/17 02:13:24;;;;;;;20.08;12.55;;;;;;;2.47;100.00;102788.63;4807489;29;20423;-74
2022/03/17 02:15:56;;;;;;;19.77;14.07;;;;;;;2.52;100.00;102791.84;4789964;29;20031;-74
2022/03/17 02:18:22;;;;;;;27.33;14.25;;;;;;;2.55;100.00;102773.03;4778124;29;20034;-74
2022/03/17 02:20:49;;;;;;;22.08;14.90;;;;;;;2.63;100.00;102775.22;4791223;29;20023;-74
2022/03/17 02:26:03;;;;;;;23.38;15.25;;;;;;;2.69;100.00;102762.38;4795882;29;20503;-74
2022/03/17 02:28:30;;;;;;;21.48;14.73;;;;;;;2.83;100.00;102778.28;4813577;29;20053;-74
2022/03/17 02:30:56;;;;;;;24.27;15.65;;;;;;;2.70;100.00;102756.09;4793659;29;20104;-74
2022/03/17 02:33:22;;;;;;;22.33;15.27;;;;;;;2.83;100.00;102783.59;4807194;29;20461;-74
2022/03/17 02:35:49;;;;;;;18.33;14.32;;;;;;;2.83;100.00;102777.41;4806589;29;20050;-74
2022/03/17 02:38:16;;;;;;;21.98;14.93;;;;;;;2.80;100.00;102791.75;4809043;29;20143;-74
2022/03/17 02:40:52;;;;;;;18.98;12.68;;;;;;;2.68;100.00;102789.91;4806543;29;20031;-74
2022/03/17 02:43:18;;;;;;;20.77;14.20;;;;;;;2.57;100.00;102792.38;4789708;29;20441;-74
2022/03/17 02:45:47;;;;;;;20.05;12.88;;;;;;;2.34;100.00;102776.09;4790509;29;20038;-74
2022/03/17 02:48:13;;;;;;;19.35;12.63;;;;;;;2.43;100.00;102800.41;4793545;29;20042;-74
2022/03/17 02:50:39;;;;;;;18.98;14.38;;;;;;;2.38;100.00;102808.63;4791883;29;20134;-74
2022/03/17 02:53:06;;;;;;;20.20;14.27;;;;;;;2.30;100.00;102784.38;4777321;29;20047;-74
2022/03/17 02:55:37;;;;;;;18.50;12.98;;;;;;;2.37;100.00;102808.75;4809790;29;20030;-74
2022/03/17 02:58:04;;;;;;;20.27;13.85;;;;;;;1.99;100.00;102762.41;4792625;29;20027;-74
2022/03/17 03:00:30;;;;;;;24.25;15.27;;;;;;;2.07;100.00;102783.16;4791566;29;20042;-74
2022/03/17 03:02:55;;;;;;;21.17;14.57;;;;;;;2.24;100.00;102813.97;4808276;29;20450;-74
2022/03/17 03:05:21;;;;;;;23.38;14.85;;;;;;;2.18;100.00;102806.38;4774094;29;20039;-74
2022/03/17 03:07:47;;;;;;;21.50;15.02;;;;;;;2.15;100.00;102812.72;4793442;29;20039;-74
2022/03/17 03:10:12;;;;;;;21.33;15.52;;;;;;;1.92;100.00;102765.50;4776497;29;20119;-74
2022/03/17 03:12:40;;;;;;;21.77;15.40;;;;;;;2.07;100.00;102794.63;4776164;29;20504;-74
2022/03/17 03:15:06;;;;;;;22.98;15.38;;;;;;;2.02;100.00;102787.88;4808270;29;20055;-73
2022/03/17 03:17:32;;;;;;;20.48;15.30;;;;;;;1.94;100.00;102782.19;4760147;30;20118;-74
2022/03/17 03:19:58;;;;;;;22.27;16.33;;;;;;;1.75;100.00;102771.84;4787640;29;20054;-74
2022/03/17 03:22:28;;;;;;;24.38;16.02;;;;;;;1.79;100.00;102766.28;4791845;29;20492;-75
2022/03/17 03:24:54;;;;;;;23.67;16.25;;;;;;;1.75;100.00;102771.84;4791222;29;20384;-75
2022/03/17 03:27:19;;;;;;;22.10;15.95;;;;;;;1.71;100.00;102768.53;4805095;29;20038;-74
2022/03/17 03:29:46;;;;;;;25.60;17.55;;;;;;;1.68;100.00;102760.75;4778283;30;20234;-74
2022/03/17 03:32:12;;;;;;;25.67;17.67;;;;;;;1.65;100.00;102766.25;4789512;30;20111;-74
2022/03/17 03:34:38;;;;;;;27.77;18.17;;;;;;;1.65;100.00;102763.59;4782427;29;20397;-74
2022/03/17 03:39:49;;;;;;;30.48;19.33;;;;;;;1.87;100.00;102768.44;4798949;29;20067;-74
2022/03/17 03:42:14;;;;;;;28.17;20.60;;;;;;;1.85;100.00;102741.13;4787382;29;20095;-74
2022/03/17 03:44:40;;;;;;;27.88;20.05;;;;;;;2.02;100.00;102759.56;4791217;29;20129;-74
2022/03/17 03:47:07;;;;;;;31.10;21.42;;;;;;;2.14;100.00;102749.09;4790002;29;20022;-74
2022/03/17 03:49:33;;;;;;;31.92;22.40;;;;;;;2.21;100.00;102753.06;4777119;29;20027;-74
2022/03/17 03:51:58;;;;;;;35.58;23.83;;;;;;;2.08;100.00;102737.91;4789798;29;20450;-74
2022/03/17 03:54:23;;;;;;;34.13;24.00;;;;;;;2.32;100.00;102772.72;4789911;29;20121;-74
2022/03/17 03:56:54;;;;;;;33.58;23.25;;;;;;;2.30;100.00;102765.78;4790885;29;20031;-74
2022/03/17 03:59:25;;;;;;;34.97;24.23;;;;;;;2.43;100.00;102773.81;4789965;29;20026;-74
2022/03/17 04:01:53;;;;;;;34.72;23.35;;;;;;;2.47;100.00;102773.53;4807610;29;20184;-74
2022/03/17 04:04:20;;;;;;;32.08;23.15;;;;;;;2.41;100.00;102760.63;4805836;29;20027;-74
2022/03/17 04:06:50;;;;;;;33.63;24.55;;;;;;;2.51;100.00;102779.50;4793905;29;20034;-74
2022/03/17 04:09:18;;;;;;;34.10;24.30;;;;;;;2.32;100.00;102746.16;4790815;29;20471;-74
2022/03/17 04:11:45;;;;;;;35.63;24.25;;;;;;;2.53;100.00;102774.94;4785502;29;20066;-75
2022/03/17 04:14:12;;;;;;;34.58;24.42;;;;;;;2.33;100.00;102744.34;4758091;30;20134;-74
2022/03/17 04:16:37;;;;;;;34.60;23.75;;;;;;;2.38;100.00;102767.94;4791152;29;20371;-74
2022/03/17 04:19:03;;;;;;;33.38;23.90;;;;;;;2.54;100.00;102795.25;4790618;29;20043;-74
2022/03/17 04:21:29;;;;;;;35.67;24.85;;;;;;;2.57;100.00;102789.72;4776424;29;20454;-74
2022/03/17 04:23:54;;;;;;;33.33;24.42;;;;;;;2.52;100.00;102782.06;4789404;29;20038;-74
2022/03/17 04:26:20;;;;;;;35.15;24.42;;;;;;;2.39;100.00;102754.56;4791475;29;20088;-75
2022/03/17 04:28:45;;;;;;;37.80;25.15;;;;;;;2.59;100.00;102777.22;4804662;29;20484;-74
2022/03/17 04:31:11;;;;;;;32.03;23.27;;;;;;;2.55;100.00;102765.06;4811757;29;20030;-74
2022/03/17 04:33:37;;;;;;;31.38;23.60;;;;;;;2.62;100.00;102768.19;4808204;29;20111;-74
2022/03/17 04:36:04;;;;;;;34.15;24.13;;;;;;;2.63;100.00;102769.88;4807896;29;20433;-74
2022/03/17 04:38:31;;;;;;;33.22;23.90;;;;;;;2.66;100.00;102765.22;4790651;29;20062;-74
2022/03/17 04:40:56;;;;;;;34.63;23.55;;;;;;;2.66;100.00;102767.88;4783908;30;20026;-74
2022/03/17 04:43:22;;;;;;;34.67;24.58;;;;;;;2.62;100.00;102753.09;4789614;30;20502;-74
2022/03/17 04:45:47;;;;;;;34.00;24.42;;;;;;;2.50;100.00;102738.78;4746933;29;20103;-74
2022/03/17 04:48:14;;;;;;;34.42;24.33;;;;;;;2.51;100.00;102736.97;4795183;29;20087;-74
2022/03/17 04:50:40;;;;;;;33.05;24.10;;;;;;;2.51;100.00;102737.81;4806416;29;20110;-74
2022/03/17 04:55:52;;;;;;;34.75;24.65;;;;;;;2.51;100.00;102731.66;4791801;29;20118;-74
2022/03/17 04:58:18;;;;;;;35.47;25.70;;;;;;;2.41;100.00;102711.94;4790128;29;20034;-74
2022/03/17 05:00:43;;;;;;;38.72;26.90;;;;;;;2.48;100.00;102724.72;4804501;29;20027;-75
2022/03/17 05:03:09;;;;;;;37.50;26.23;;;;;;;2.46;100.00;102716.03;4806828;29;20039;-75
2022/03/17 05:05:35;;;;;;;40.30;27.25;;;;;;;2.35;100.00;102703.44;4788545;29;20035;-75
2022/03/17 05:08:00;;;;;;;43.05;29.20;;;;;;;2.46;100.00;102717.84;4789987;29;20125;-75
2022/03/17 05:10:28;;;;;;;38.75;28.20;;;;;;;2.46;100.00;102716.03;4801447;29;20451;-76
2022/03/17 05:12:54;;;;;;;43.17;28.65;;;;;;;2.55;100.00;102719.88;4780509;29;20113;-73
2022/03/17 05:15:20;;;;;;;45.20;29.02;;;;;;;2.53;100.00;102727.09;4778280;29;20035;-72
2022/03/17 05:17:47;;;;;;;42.60;29.88;;;;;;;2.15;100.00;102656.03;4801584;29;20050;-74
2022/03/17 05:20:13;;;;;;;43.38;30.02;;;;;;;2.59;100.00;102740.00;4789345;29;20030;-75
2022/03/17 05:22:39;;;;;;;40.05;29.20;;;;;;;2.57;100.00;102733.91;4805400;29;20453;-74
2022/03/17 05:25:08;;;;;;;47.55;30.42;;;;;;;2.57;100.00;102733.91;4789432;29;20042;-74
2022/03/17 05:27:39;;;;;;;46.38;31.83;;;;;;;2.54;100.00;102719.03;4790355;29;20467;-74
2022/03/17 05:30:05;;;;;;;43.70;30.00;;;;;;;2.48;100.00;102714.09;4805243;29;20030;-74
2022/03/17 05:32:32;;;;;;;44.95;31.70;;;;;;;2.57;100.00;102729.47;4805756;29;20066;-74
2022/03/17 05:34:58;;;;;;;46.00;30.88;;;;;;;2.50;100.00;102712.22;4804467;29;20464;-74
2022/03/17 05:37:24;;;;;;;44.70;31.70;;;;;;;2.45;100.00;102709.00;4790293;29;20147;-74
2022/03/17 05:39:50;;;;;;;45.25;31.60;;;;;;;2.52;100.00;102712.97;4770570;30;20066;-74
2022/03/17 05:42:15;;;;;;;45.60;31.52;;;;;;;2.35;100.00;102694.59;4771529;29;20058;-74
2022/03/17 05:44:42;;;;;;;45.78;31.30;;;;;;;2.34;100.00;102693.75;4809531;29;20059;-74
2022/03/17 05:47:08;;;;;;;45.95;32.13;;;;;;;2.50;100.00;102706.06;4793641;29;20042;-74
2022/03/17 05:49:33;;;;;;;45.95;31.75;;;;;;;2.44;100.00;102706.44;4794361;29;20034;-74
2022/03/17 05:51:59;;;;;;;46.30;31.20;;;;;;;2.47;100.00;102708.91;4808165;29;20047;-74
2022/03/17 05:54:25;;;;;;;48.72;32.20;;;;;;;2.49;100.00;102712.31;4792359;29;20037;-74
2022/03/17 05:56:50;;;;;;;43.95;30.45;;;;;;;2.31;100.00;102685.97;4815014;29;20031;-73
2022/03/17 05:59:15;;;;;;;46.20;32.00;;;;;;;2.38;100.00;102677.63;4793959;29;20027;-74
2022/03/17 06:01:41;;;;;;;47.08;31.75;;;;;;;2.52;100.00;102704.16;4777473;29;20037;-75
2022/03/17 06:04:06;;;;;;;43.97;31.85;;;;;;;2.52;100.00;102697.03;4793932;29;20050;-74
2022/03/17 06:06:32;;;;;;;49.53;32.72;;;;;;;2.50;100.00;102692.75;4797471;29;20070;-74
2022/03/17 06:08:57;;;;;;;44.90;31.75;;;;;;;2.55;100.00;102693.28;4816173;29;20038;-74
2022/03/17 06:11:22;;;;;;;51.22;32.40;;;;;;;2.59;100.00;102690.34;4811134;29;20039;-74
2022/03/17 06:13:48;;;;;;;47.78;32.53;;;;;;;2.62;100.00;102691.13;4794508;29;20128;-74
2022/03/17 06:16:13;;;;;;;47.63;31.95;;;;;;;2.58;100.00;102677.16;4792340;29;20058;-74
2022/03/17 06:18:40;;;;;;;47.60;32.67;;;;;;;2.64;100.00;102676.75;4809168;29;20035;-74
2022/03/17 06:21:06;;;;;;;46.75;32.38;;;;;;;2.72;100.00;102677.13;4806719;29;20061;-74
2022/03/17 06:23:32;;;;;;;48.33;32.38;;;;;;;2.74;100.00;102671.69;4774108;30;20419;-74
2022/03/17 06:25:57;;;;;;;45.22;31.40;;;;;;;2.78;100.00;102675.84;4791143;30;20058;-74
2022/03/17 06:28:24;;;;;;;49.30;30.60;;;;;;;2.72;100.00;102661.16;4780408;29;20138;-74
2022/03/17 06:30:51;;;;;;;46.65;30.50;;;;;;;2.84;100.00;102670.09;4797872;29;20058;-75
2022/03/17 06:33:16;;;;;;;48.63;31.17;;;;;;;2.90;100.00;102676.84;4791542;29;20041;-74
2022/03/17 06:35:42;;;;;;;43.05;29.80;;;;;;;2.94;100.00;102668.53;4775716;29;20031;-74
2022/03/17 06:38:08;;;;;;;46.70;29.98;;;;;;;3.01;100.00;102666.31;4776684;29;20122;-73
2022/03/17 06:40:35;;;;;;;51.38;29.63;;;;;;;3.07;100.00;102665.91;4803624;29;21324;-74
2022/03/17 06:43:01;;;;;;;49.20;28.85;;;;;;;3.07;100.00;102647.28;4799219;29;20092;-74
2022/03/17 06:45:27;;;;;;;41.40;27.33;;;;;;;3.19;100.00;102656.25;4774857;30;20442;-74
2022/03/17 06:47:53;;;;;;;42.00;28.30;;;;;;;3.24;100.00;102660.28;4795382;29;20054;-74
2022/03/17 06:50:21;;;;;;;37.03;25.75;;;;;;;3.29;100.00;102663.47;4794526;29;20401;-73
2022/03/17 06:52:47;;;;;;;39.33;27.13;;;;;;;3.38;100.00;102656.69;4790514;29;20091;-73
2022/03/17 06:55:14;;;;;;;41.38;26.75;;;;;;;3.46;100.00;102658.78;4800701;29;20034;-73
2022/03/17 06:57:41;;;;;;;38.03;26.35;;;;;;;3.52;100.00;102653.03;4768460;29;20030;-73
2022/03/17 07:00:09;;;;;;;34.78;24.70;;;;;;;3.61;100.00;102655.06;4782964;29;20027;-73
2022/03/17 07:02:34;;;;;;;33.40;24.52;;;;;;;3.64;100.00;102643.31;4785881;29;20039;-73
2022/03/17 07:05:00;;;;;;;33.40;22.60;;;;;;;3.60;100.00;102633.88;4799407;29;20103;-74
2022/03/17 07:07:27;;;;;;;31.98;22.08;;;;;;;3.75;100.00;102638.13;4781792;29;20026;-73
2022/03/17 07:09:52;;;;;;;33.55;23.33;;;;;;;3.83;100.00;102635.75;4799300;29;20142;-74
2022/03/17 07:12:18;;;;;;;31.08;22.20;;;;;;;3.85;100.00;102639.16;4798878;29;20604;-75
2022/03/17 07:14:44;;;;;;;32.00;23.05;;;;;;;3.66;100.00;102593.50;4784964;29;20433;-73
2022/03/17 07:17:09;;;;;;;29.33;22.08;;;;;;;3.95;100.00;102645.50;4784351;29;20095;-74
2022/03/17 07:19:35;;;;;;;29.95;22.33;;;;;;;3.94;100.00;102632.28;4805908;29;20038;-73
2022/03/17 07:22:01;;;;;;;31.75;20.45;;;;;;;4.04;100.00;102636.03;4775117;29;20110;-74
2022/03/17 07:24:26;;;;;;;30.27;21.20;;;;;;;3.89;100.00;102610.50;4777442;29;20065;-74
2022/03/17 07:26:52;;;;;;;28.85;21.25;;;;;;;4.13;100.00;102632.66;4803751;29;20053;-74
2022/03/17 07:29:17;;;;;;;27.60;20.42;;;;;;;4.06;100.00;102617.25;4803385;29;20027;-73
2022/03/17 07:31:43;;;;;;;28.42;20.45;;;;;;;4.15;100.00;102633.41;4789743;29;20374;-73
2022/03/17 07:34:09;;;;;;;26.75;19.90;;;;;;;4.16;100.00;102631.59;4790670;29;20031;-74
2022/03/17 07:36:35;;;;;;;26.20;20.27;;;;;;;4.04;100.00;102606.72;4803317;29;20050;-73
2022/03/17 07:39:02;;;;;;;27.17;19.13;;;;;;;3.97;100.00;102581.47;4798712;29;20043;-74
2022/03/17 07:41:27;;;;;;;26.27;19.65;;;;;;;4.08;100.00;102594.88;4786556;29;20148;-74
2022/03/17 07:43:52;;;;;;;28.35;19.25;;;;;;;4.05;100.00;102586.25;4798609;29;20117;-74
2022/03/17 07:46:18;;;;;;;31.65;19.63;;;;;;;4.21;100.00;102600.16;4804006;29;20126;-74
2022/03/17 07:48:44;;;;;;;26.60;18.52;;;;;;;4.20;100.00;102604.59;4806905;29;20038;-74
2022/03/17 07:51:10;;;;;;;24.50;18.55;;;;;;;4.18;100.00;102587.91;4802858;29;20055;-74
2022/03/17 07:53:37;;;;;;;26.88;18.13;;;;;;;4.31;100.00;102593.16;4782628;29;20039;-74
2022/03/17 07:56:03;;;;;;;25.95;18.38;;;;;;;4.29;100.00;102579.09;4800310;29;20102;-74
2022/03/17 07:58:29;;;;;;;26.83;18.25;;;;;;;4.16;100.00;102555.19;4781023;29;20111;-74
2022/03/17 08:00:57;;;;;;;31.23;18.77;;;;;;;4.36;100.00;102584.81;4780157;29;20027;-73
2022/03/17 08:03:23;;;;;;;28.83;18.60;;;;;;;4.34;100.00;102571.63;4797570;29;20118;-74
2022/03/17 08:05:49;;;;;;;25.42;18.63;;;;;;;4.52;100.00;102576.53;4798805;29;20126;-73
2022/03/17 08:08:15;;;;;;;26.80;18.55;;;;;;;4.59;100.00;102575.94;4782182;29;20120;-74
2022/03/17 08:10:42;;;;;;;32.38;18.70;;;;;;;4.63;100.00;102577.41;4797895;29;20047;-74
2022/03/17 08:13:09;;;;;;;27.27;17.73;;;;;;;4.72;100.00;102570.53;4794893;29;20109;-74
2022/03/17 08:15:36;;;;;;;27.95;18.25;;;;;;;4.70;100.00;102565.31;4780263;29;20485;-74
2022/03/17 08:18:02;;;;;;;26.65;17.35;;;;;;;4.70;100.00;102543.09;4805849;29;20038;-74
2022/03/17 08:20:27;;;;;;;26.10;18.45;;;;;;;4.78;100.00;102545.22;4802454;29;20458;-74
2022/03/17 08:22:53;;;;;;;28.50;18.63;;;;;;;4.93;100.00;102565.34;4799203;29;20047;-74
2022/03/17 08:25:18;;;;;;;26.70;18.38;;;;;;;4.95;100.00;102547.41;4784829;29;20050;-75
2022/03/17 08:27:44;;;;;;;24.23;18.27;;;;;;;5.06;100.00;102557.22;4799785;29;20093;-75
2022/03/17 08:30:11;;;;;;;27.35;18.70;;;;;;;5.10;100.00;102556.91;4801935;29;20524;-74
2022/03/17 08:32:40;;;;;;;27.60;18.40;;;;;;;5.17;100.00;102557.25;4808471;29;20034;-74
2022/03/17 08:35:06;;;;;;;24.75;19.35;;;;;;;5.17;100.00;102542.09;4799129;29;20377;-74
2022/03/17 08:37:38;;;;;;;27.77;18.63;;;;;;;5.29;100.00;102552.75;4783300;29;20039;-74
2022/03/17 08:40:04;;;;;;;28.80;18.73;;;;;;;5.32;100.00;102541.84;4799375;29;20449;-77
2022/03/17 08:42:29;;;;;;;28.20;18.77;;;;;;;5.32;100.00;102536.50;4797131;29;20108;-76
2022/03/17 08:44:55;;;;;;;26.67;18.00;;;;;;;5.46;100.00;102532.72;4783944;29;20038;-78
2022/03/17 08:50:05;;;;;;;26.05;16.40;;;;;;;5.48;100.00;102531.63;4771889;29;20096;-76
2022/03/17 08:52:30;;;;;;;28.65;18.52;;;;;;;5.46;100.00;102503.34;4800023;29;20034;-75
2022/03/17 08:54:56;;;;;;;26.55;19.38;;;;;;;5.64;100.00;102523.25;4798590;29;20099;-73
2022/03/17 08:57:22;;;;;;;28.13;19.38;;;;;;;5.68;100.00;102526.50;4788032;29;20026;-73
2022/03/17 08:59:48;;;;;;;34.20;18.83;;;;;;;5.73;100.00;102522.50;4789950;29;20600;-74
2022/03/17 09:02:14;;;;;;;28.98;19.27;;;;;;;5.54;100.00;102511.63;4773985;29;20063;-73
2022/03/17 09:04:40;;;;;;;29.95;18.67;;;;;;;5.70;100.00;102513.88;4777155;29;20034;-73
2022/03/17 09:07:06;;;;;;;33.13;19.75;;;;;;;5.77;100.00;102509.75;4803891;29;20366;-73
2022/03/17 09:09:34;;;;;;;32.17;19.20;;;;;;;5.84;100.00;102526.97;4781792;29;20059;-73
2022/03/17 09:12:05;;;;;;;35.28;19.52;;;;;;;5.80;100.00;102517.50;4782384;29;20031;-73
2022/03/17 09:14:44;;;;;;;28.80;19.55;;;;;;;5.83;100.00;102514.59;4800778;29;20114;-74
2022/03/17 09:17:09;;;;;;;29.20;19.40;;;;;;;5.92;100.00;102518.31;4781225;29;20108;-73
2022/03/17 09:19:34;;;;;;;32.13;20.73;;;;;;;5.85;100.00;102516.13;4776587;29;20047;-73
2022/03/17 09:22:01;;;;;;;32.78;20.83;;;;;;;5.76;100.00;102516.91;4789141;29;20119;-73
2022/03/17 09:24:30;;;;;;;27.42;18.77;;;;;;;5.83;100.00;102504.75;4787410;29;20039;-73
2022/03/17 09:26:56;;;;;;;29.45;20.80;;;;;;;5.93;100.00;102517.34;4792079;29;20473;-73
2022/03/17 09:29:23;;;;;;;31.05;20.00;;;;;;;6.03;100.00;102507.63;4788492;29;20043;-73
2022/03/17 09:31:50;;;;;;;32.00;21.38;;;;;;;6.07;100.00;102506.38;4789065;29;20045;-74
2022/03/17 09:34:15;;;;;;;28.20;20.83;;;;;;;6.09;100.00;102510.63;4784510;29;20042;-74
2022/03/17 09:36:42;;;;;;;32.13;20.83;;;;;;;6.16;100.00;102510.09;4796659;29;20062;-73
2022/03/17 09:41:52;;;;;;;33.50;21.75;;;;;;;6.27;100.00;102502.03;4799743;29;20096;-74
2022/03/17 09:44:19;;;;;;;34.80;21.20;;;;;;;6.14;100.00;102478.16;4807115;29;20031;-74
2022/03/17 09:46:45;;;;;;;33.90;21.23;;;;;;;6.29;100.00;102481.34;4807200;29;20430;-73
2022/03/17 09:49:10;;;;;;;37.05;22.08;;;;;;;6.44;100.00;102498.78;4792891;29;20035;-74
2022/03/17 09:51:37;;;;;;;31.98;21.55;;;;;;;6.46;100.00;102493.31;4786099;29;20058;-73
2022/03/17 09:54:02;;;;;;;36.92;20.60;;;;;;;6.37;100.00;102478.88;4783111;29;20023;-73
2022/03/17 09:56:28;;;;;;;33.92;20.77;;;;;;;6.45;100.00;102483.56;4793771;29;20111;-73
2022/03/17 09:58:56;;;;;;;33.40;22.13;;;;;;;6.49;100.00;102485.00;4795356;29;20449;-74
2022/03/17 10:01:23;;;;;;;40.10;20.85;;;;;;;6.48;100.00;102470.78;4780468;29;20043;-74
2022/03/17 10:03:49;;;;;;;36.70;22.60;;;;;;;6.64;100.00;102480.19;4779211;30;20058;-74
2022/03/17 10:06:17;;;;;;;30.92;20.13;;;;;;;6.76;100.00;102476.47;4784763;29;20031;-74
2022/03/17 10:08:45;;;;;;;38.33;23.45;;;;;;;6.76;100.00;102468.44;4785238;29;20042;-74
2022/03/17 10:11:15;;;;;;;35.63;22.42;;;;;;;6.66;100.00;102433.59;4801406;29;20692;-74
2022/03/17 10:13:47;;;;;;;34.55;21.98;;;;;;;6.81;100.00;102464.34;4793166;29;20064;-74
2022/03/17 10:16:18;;;;;;;32.38;20.98;;;;;;;6.76;100.00;102447.03;4795117;29;20054;-74
2022/03/17 10:18:46;;;;;;;33.55;21.17;;;;;;;6.79;100.00;102450.28;4796832;29;20038;-74
2022/03/17 10:21:24;;;;;;;32.13;20.67;;;;;;;6.93;100.00;102457.09;4772711;29;20027;-74
2022/03/17 10:23:54;;;;;;;29.10;20.88;;;;;;;6.85;100.00;102438.16;4782582;29;20030;-74
2022/03/17 10:26:50;;;;;;;32.13;21.52;;;;;;;6.86;100.00;102439.03;4792828;29;20058;-74
2022/03/17 10:29:23;;;;;;;;;;;;;;;6.97;100.00;102437.09;4772612;29;20078;-73
2022/03/17 10:31:55;;;;;;;31.05;19.77;;;;;;;7.07;100.00;102437.97;4799786;29;20260;-74
2022/03/17 10:34:28;;;;;;;31.33;21.98;;;;;;;7.13;100.00;102449.13;4788155;29;20051;-74
2022/03/17 10:37:07;;;;;;;37.35;20.08;;;;;;;7.18;100.00;102425.47;4785881;29;20290;-74
2022/03/17 10:39:38;;;;;;;28.33;19.52;;;;;;;7.30;100.00;102435.94;4796279;29;20034;-74
2022/03/17 10:42:17;;;;;;;29.80;19.85;;;;;;;7.27;100.00;102430.00;4800619;29;20122;-74
2022/03/17 10:44:48;;;;;;;32.90;19.35;;;;;;;7.41;100.00;102428.75;4784879;30;20031;-74
2022/03/17 10:47:14;;;;;;;34.90;19.30;;;;;;;7.32;100.00;102408.16;4794290;29;20035;-74
2022/03/17 10:50:34;;;;;;;31.08;18.42;;;;;;;7.37;100.00;102416.63;4794527;29;20035;-74
2022/03/17 10:53:01;;;;;;;30.38;19.42;;;;;;;7.26;100.00;102407.75;4700611;30;20033;-74
2022/03/17 10:55:32;;;;;;;32.67;18.63;;;;;;;7.11;100.00;102417.13;4686623;30;20393;-74
2022/03/17 10:58:20;;;;;;;33.53;20.25;;;;;;;7.30;100.00;102411.81;4744584;29;20055;-75
2022/03/17 11:00:51;;;;;;;35.25;19.42;;;;;;;7.03;100.00;102388.38;4790748;29;20095;-74
2022/03/17 11:03:18;;;;;;;30.25;19.25;;;;;;;7.21;100.00;102407.28;4785314;29;20365;-74
2022/03/17 11:05:44;;;;;;;29.95;20.05;;;;;;;6.97;100.00;102391.59;4785664;29;20046;-73
2022/03/17 11:08:10;;;;;;;34.75;21.20;;;;;;;7.23;100.00;102409.84;4781704;29;20369;-74
2022/03/17 11:10:51;;;;;;;23.88;17.73;;;;;;;7.15;100.00;102401.66;4796083;29;20449;-74
2022/03/17 11:13:17;;;;;;;28.60;19.88;;;;;;;7.12;100.00;102392.09;4796856;29;20035;-74
2022/03/17 11:15:45;;;;;;;31.55;21.15;;;;;;;6.88;100.00;102330.88;4772234;29;20031;-74
2022/03/17 11:18:21;;;;;;;29.52;19.40;;;;;;;7.42;100.00;102401.84;4794282;29;20084;-74
2022/03/17 11:20:47;;;;;;;31.90;20.40;;;;;;;7.39;100.00;102410.16;4798565;29;20023;-73
2022/03/17 11:23:16;;;;;;;33.78;20.63;;;;;;;7.41;100.00;102408.16;4784277;29;20035;-73
2022/03/17 11:25:50;;;;;;;30.70;20.75;;;;;;;7.38;100.00;102404.94;4779674;30;20031;-73
2022/03/17 11:28:16;;;;;;;31.13;20.75;;;;;;;7.42;100.00;102401.00;4803651;29;20457;-74